createdAt,value
2017-07-06T00:00:43.434Z,0
2017-07-06T00:01:44.833Z,0
2017-07-06T00:02:46.240Z,0
2017-07-06T00:03:47.755Z,0
2017-07-06T00:04:49.184Z,0
2017-07-06T00:05:50.577Z,0
2017-07-06T00:06:52.097Z,0
2017-07-06T00:07:53.502Z,0
2017-07-06T00:08:54.898Z,0
2017-07-06T00:09:56.397Z,0
2017-07-06T00:10:57.798Z,0
2017-07-06T00:11:59.230Z,0
2017-07-06T00:13:00.719Z,0
2017-07-06T00:14:02.134Z,0
2017-07-06T00:15:03.807Z,0
2017-07-06T00:16:05.213Z,0
2017-07-06T00:17:06.615Z,0
2017-07-06T00:18:08.129Z,0
2017-07-06T00:19:09.533Z,0
2017-07-06T00:20:10.934Z,0
2017-07-06T00:21:12.445Z,0
2017-07-06T00:22:13.853Z,0
2017-07-06T00:23:15.251Z,0
2017-07-06T00:24:16.768Z,0
2017-07-06T00:25:18.170Z,0
2017-07-06T00:26:19.888Z,0
2017-07-06T00:27:21.282Z,0
2017-07-06T00:28:22.949Z,0
2017-07-06T00:29:24.345Z,0
2017-07-06T00:30:26.021Z,0
2017-07-06T00:31:27.437Z,0
2017-07-06T00:32:29.108Z,0
2017-07-06T00:33:30.524Z,0
2017-07-06T00:34:31.924Z,0
2017-07-06T00:35:33.427Z,0
2017-07-06T00:36:34.826Z,0
2017-07-06T00:37:36.226Z,0
2017-07-06T00:38:37.753Z,0
2017-07-06T00:39:39.158Z,0
2017-07-06T00:40:40.899Z,0
2017-07-06T00:41:42.276Z,0
2017-07-06T00:42:43.942Z,0
2017-07-06T00:43:45.320Z,0
2017-07-06T00:44:47.009Z,0
2017-07-06T00:45:48.411Z,0
2017-07-06T00:46:50.091Z,0
2017-07-06T00:47:51.491Z,0
2017-07-06T00:48:52.978Z,0
2017-07-06T00:49:54.376Z,0
2017-07-06T00:50:55.890Z,0
2017-07-06T00:51:57.264Z,0
2017-07-06T00:52:58.751Z,0
2017-07-06T00:54:00.377Z,0
2017-07-06T00:55:01.782Z,0
2017-07-06T00:56:03.177Z,0
2017-07-06T00:57:04.744Z,0
2017-07-06T00:58:06.156Z,0
2017-07-06T00:59:07.556Z,0
2017-07-06T01:00:09.222Z,0
2017-07-06T01:01:10.627Z,0
2017-07-06T01:02:12.019Z,0
2017-07-06T01:03:13.541Z,0
2017-07-06T01:04:14.944Z,0
2017-07-06T01:05:16.478Z,0
2017-07-06T01:06:17.875Z,0
2017-07-06T01:07:19.493Z,0
2017-07-06T01:08:20.890Z,0
2017-07-06T01:09:22.387Z,0
2017-07-06T01:10:23.787Z,0
2017-07-06T01:11:25.270Z,0
2017-07-06T01:12:26.694Z,0
2017-07-06T01:13:28.357Z,0
2017-07-06T01:14:29.777Z,0
2017-07-06T01:15:31.438Z,0
2017-07-06T01:16:32.847Z,0
2017-07-06T01:17:34.322Z,0
2017-07-06T01:18:35.720Z,0
2017-07-06T01:19:37.435Z,0
2017-07-06T01:20:38.845Z,0
2017-07-06T01:21:40.493Z,0
2017-07-06T01:22:41.892Z,0
2017-07-06T01:23:43.292Z,0
2017-07-06T01:24:44.839Z,0
2017-07-06T01:25:46.237Z,0
2017-07-06T01:26:47.637Z,0
2017-07-06T01:27:49.084Z,0
2017-07-06T01:28:50.479Z,0
2017-07-06T01:29:52.014Z,0
2017-07-06T01:30:53.435Z,0
2017-07-06T01:31:55.105Z,0
2017-07-06T01:32:56.499Z,0
2017-07-06T01:33:57.993Z,0
2017-07-06T01:34:59.415Z,0
2017-07-06T01:36:01.064Z,0
2017-07-06T01:37:02.465Z,0
2017-07-06T01:38:03.946Z,0
2017-07-06T01:39:05.348Z,0
2017-07-06T01:40:06.827Z,0
2017-07-06T01:41:08.249Z,0
2017-07-06T01:42:09.912Z,0
2017-07-06T01:43:11.377Z,0
2017-07-06T01:44:12.780Z,0
2017-07-06T01:45:14.438Z,0
2017-07-06T01:46:15.893Z,0
2017-07-06T01:47:17.382Z,0
2017-07-06T01:48:18.943Z,0
2017-07-06T01:49:20.340Z,0
2017-07-06T01:50:21.869Z,0
2017-07-06T01:51:23.266Z,0
2017-07-06T01:52:24.942Z,0
2017-07-06T01:53:26.359Z,0
2017-07-06T01:54:28.013Z,0
2017-07-06T01:55:29.415Z,0
2017-07-06T01:56:30.897Z,0
2017-07-06T01:57:32.338Z,0
2017-07-06T01:58:33.732Z,0
2017-07-06T01:59:35.219Z,0
2017-07-06T02:00:36.619Z,0
2017-07-06T02:01:38.016Z,0
2017-07-06T02:02:39.540Z,0
2017-07-06T02:03:40.939Z,0
2017-07-06T02:04:42.339Z,0
2017-07-06T02:05:43.856Z,0
2017-07-06T02:06:45.260Z,0
2017-07-06T02:07:46.738Z,0
2017-07-06T02:08:48.138Z,0
2017-07-06T02:09:49.540Z,0
2017-07-06T02:10:51.085Z,0
2017-07-06T02:11:52.487Z,0
2017-07-06T02:12:53.897Z,0
2017-07-06T02:13:55.383Z,0
2017-07-06T02:14:56.789Z,0
2017-07-06T02:15:58.291Z,0
2017-07-06T02:16:59.690Z,0
2017-07-06T02:18:01.347Z,0
2017-07-06T02:19:02.750Z,0
2017-07-06T02:20:04.237Z,0
2017-07-06T02:21:05.662Z,0
2017-07-06T02:22:07.326Z,0
2017-07-06T02:23:08.740Z,0
2017-07-06T02:24:10.137Z,0
2017-07-06T02:25:11.633Z,0
2017-07-06T02:26:13.032Z,0
2017-07-06T02:27:14.467Z,0
2017-07-06T02:28:15.954Z,0
2017-07-06T02:29:17.366Z,0
2017-07-06T02:30:18.832Z,0
2017-07-06T02:31:20.253Z,0
2017-07-06T02:32:21.719Z,0
2017-07-06T02:33:23.117Z,0
2017-07-06T02:34:24.637Z,0
2017-07-06T02:35:26.039Z,0
2017-07-06T02:36:27.703Z,0
2017-07-06T02:37:29.101Z,0
2017-07-06T02:38:30.564Z,0
2017-07-06T02:39:31.986Z,0
2017-07-06T02:40:33.442Z,0
2017-07-06T02:41:34.896Z,0
2017-07-06T02:42:36.525Z,0
2017-07-06T02:43:37.940Z,0
2017-07-06T02:44:39.337Z,0
2017-07-06T02:45:40.852Z,0
2017-07-06T02:46:42.251Z,0
2017-07-06T02:47:43.654Z,0
2017-07-06T02:48:45.198Z,0
2017-07-06T02:49:46.600Z,0
2017-07-06T02:50:48.055Z,0
2017-07-06T02:51:49.452Z,0
2017-07-06T02:52:51.017Z,0
2017-07-06T02:53:52.407Z,0
2017-07-06T02:54:54.021Z,0
2017-07-06T02:55:55.464Z,0
2017-07-06T02:56:57.101Z,0
2017-07-06T02:57:58.505Z,0
2017-07-06T02:58:59.981Z,0
2017-07-06T03:00:01.401Z,0
2017-07-06T03:01:02.835Z,0
2017-07-06T03:02:04.303Z,0
2017-07-06T03:03:05.707Z,0
2017-07-06T03:04:07.171Z,0
2017-07-06T03:05:08.828Z,0
2017-07-06T03:06:10.234Z,0
2017-07-06T03:07:11.710Z,0
2017-07-06T03:08:13.168Z,0
2017-07-06T03:09:14.793Z,0
2017-07-06T03:10:16.249Z,0
2017-07-06T03:11:17.881Z,0
2017-07-06T03:12:19.283Z,0
2017-07-06T03:13:20.762Z,0
2017-07-06T03:14:22.170Z,0
2017-07-06T03:15:23.669Z,0
2017-07-06T03:16:25.125Z,0
2017-07-06T03:17:26.864Z,0
2017-07-06T03:18:28.266Z,0
2017-07-06T03:19:29.687Z,0
2017-07-06T03:20:31.255Z,0
2017-07-06T03:21:32.654Z,0
2017-07-06T03:22:34.074Z,0
2017-07-06T03:23:35.571Z,0
2017-07-06T03:24:36.998Z,0
2017-07-06T03:25:38.415Z,0
2017-07-06T03:26:39.893Z,0
2017-07-06T03:27:41.290Z,0
2017-07-06T03:28:42.732Z,0
2017-07-06T03:29:44.155Z,0
2017-07-06T03:30:45.609Z,0
2017-07-06T03:31:47.127Z,5
2017-07-06T03:32:48.529Z,5
2017-07-06T03:33:49.978Z,5
2017-07-06T03:34:51.453Z,5
2017-07-06T03:35:52.854Z,5
2017-07-06T03:36:54.331Z,5
2017-07-06T03:37:55.763Z,5
2017-07-06T03:38:57.419Z,5
2017-07-06T03:39:58.823Z,5
2017-07-06T03:41:00.222Z,5
2017-07-06T03:42:01.807Z,5
2017-07-06T03:43:03.239Z,5
2017-07-06T03:44:04.634Z,5
2017-07-06T03:45:06.257Z,5
2017-07-06T03:46:07.663Z,5
2017-07-06T03:47:09.113Z,10
2017-07-06T03:48:10.514Z,10
2017-07-06T03:49:11.999Z,10
2017-07-06T03:50:13.399Z,10
2017-07-06T03:51:14.831Z,10
2017-07-06T03:52:16.318Z,10
2017-07-06T03:53:17.727Z,10
2017-07-06T03:54:19.124Z,10
2017-07-06T03:55:20.629Z,10
2017-07-06T03:56:22.068Z,10
2017-07-06T03:57:23.468Z,10
2017-07-06T03:58:24.991Z,15
2017-07-06T03:59:26.391Z,15
2017-07-06T04:00:27.799Z,15
2017-07-06T04:01:29.302Z,15
2017-07-06T04:02:30.706Z,15
2017-07-06T04:03:32.103Z,15
2017-07-06T04:04:33.594Z,15
2017-07-06T04:05:35.005Z,20
2017-07-06T04:06:36.474Z,20
2017-07-06T04:07:37.893Z,20
2017-07-06T04:08:39.443Z,20
2017-07-06T04:09:40.846Z,20
2017-07-06T04:10:42.452Z,20
2017-07-06T04:11:43.849Z,20
2017-07-06T04:12:45.363Z,20
2017-07-06T04:13:46.773Z,25
2017-07-06T04:14:48.404Z,25
2017-07-06T04:15:49.817Z,25
2017-07-06T04:16:51.220Z,25
2017-07-06T04:17:52.779Z,25
2017-07-06T04:18:54.178Z,25
2017-07-06T04:19:55.603Z,25
2017-07-06T04:20:57.056Z,25
2017-07-06T04:21:58.460Z,25
2017-07-06T04:22:59.866Z,25
2017-07-06T04:24:01.368Z,30
2017-07-06T04:25:02.782Z,30
2017-07-06T04:26:04.187Z,30
2017-07-06T04:27:05.723Z,30
2017-07-06T04:28:07.129Z,30
2017-07-06T04:29:08.598Z,30
2017-07-06T04:30:10.000Z,30
2017-07-06T04:31:11.459Z,30
2017-07-06T04:32:12.872Z,35
2017-07-06T04:33:14.349Z,35
2017-07-06T04:34:15.801Z,35
2017-07-06T04:35:17.224Z,35
2017-07-06T04:36:18.759Z,35
2017-07-06T04:37:20.162Z,35
2017-07-06T04:38:21.581Z,40
2017-07-06T04:39:23.292Z,40
2017-07-06T04:40:24.747Z,40
2017-07-06T04:41:26.155Z,40
2017-07-06T04:42:27.817Z,40
2017-07-06T04:43:29.222Z,40
2017-07-06T04:44:30.896Z,40
2017-07-06T04:45:32.299Z,40
2017-07-06T04:46:33.981Z,45
2017-07-06T04:47:35.388Z,45
2017-07-06T04:48:37.084Z,45
2017-07-06T04:49:39.680Z,45
2017-07-06T04:50:40.831Z,45
2017-07-06T04:51:42.418Z,45
2017-07-06T04:52:43.878Z,45
2017-07-06T04:53:45.257Z,50
2017-07-06T04:54:46.937Z,50
2017-07-06T04:55:48.356Z,50
2017-07-06T04:56:49.760Z,50
2017-07-06T04:57:51.459Z,50
2017-07-06T04:58:52.871Z,50
2017-07-06T04:59:54.272Z,50
2017-07-06T05:00:56.044Z,50
2017-07-06T05:01:57.422Z,50
2017-07-06T05:02:59.081Z,55
2017-07-06T05:04:00.489Z,55
2017-07-06T05:05:02.156Z,55
2017-07-06T05:06:03.563Z,55
2017-07-06T05:07:05.241Z,55
2017-07-06T05:08:06.646Z,55
2017-07-06T05:09:08.327Z,55
2017-07-06T05:10:09.730Z,55
2017-07-06T05:11:11.416Z,60
2017-07-06T05:12:12.822Z,60
2017-07-06T05:13:14.244Z,60
2017-07-06T05:14:15.977Z,60
2017-07-06T05:15:17.406Z,60
2017-07-06T05:16:18.811Z,60
2017-07-06T05:17:20.472Z,60
2017-07-06T05:18:21.874Z,60
2017-07-06T05:19:23.294Z,60
2017-07-06T05:20:24.990Z,60
2017-07-06T05:21:26.395Z,60
2017-07-06T05:22:27.798Z,60
2017-07-06T05:23:29.522Z,60
2017-07-06T05:24:30.925Z,60
2017-07-06T05:25:32.331Z,65
2017-07-06T05:26:34.059Z,65
2017-07-06T05:27:35.474Z,65
2017-07-06T05:28:36.869Z,65
2017-07-06T05:29:38.567Z,65
2017-07-06T05:30:39.973Z,65
2017-07-06T05:31:41.376Z,65
2017-07-06T05:32:43.095Z,70
2017-07-06T05:33:44.498Z,70
2017-07-06T05:34:46.194Z,70
2017-07-06T05:35:47.600Z,75
2017-07-06T05:36:49.201Z,70
2017-07-06T05:37:50.603Z,70
2017-07-06T05:38:52.142Z,70
2017-07-06T05:39:53.555Z,75
2017-07-06T05:40:54.954Z,75
2017-07-06T05:41:56.668Z,75
2017-07-06T05:42:58.072Z,75
2017-07-06T05:43:59.491Z,75
2017-07-06T05:45:01.195Z,75
2017-07-06T05:46:02.616Z,80
2017-07-06T05:47:04.021Z,80
2017-07-06T05:48:05.720Z,80
2017-07-06T05:49:07.125Z,80
2017-07-06T05:50:08.528Z,80
2017-07-06T05:51:10.041Z,85
2017-07-06T05:52:11.444Z,85
2017-07-06T05:53:12.852Z,85
2017-07-06T05:54:14.568Z,85
2017-07-06T05:55:16.399Z,85
2017-07-06T05:56:17.849Z,85
2017-07-06T05:57:19.497Z,85
2017-07-06T05:58:20.903Z,85
2017-07-06T05:59:22.308Z,90
2017-07-06T06:00:23.831Z,90
2017-07-06T06:01:25.238Z,90
2017-07-06T06:02:26.662Z,90
2017-07-06T06:03:28.398Z,90
2017-07-06T06:04:29.760Z,95
2017-07-06T06:05:31.344Z,95
2017-07-06T06:06:32.750Z,95
2017-07-06T06:07:34.315Z,95
2017-07-06T06:08:35.718Z,100
2017-07-06T06:09:37.407Z,100
2017-07-06T06:10:38.816Z,100
2017-07-06T06:11:40.493Z,100
2017-07-06T06:12:41.894Z,100
2017-07-06T06:13:43.577Z,100
2017-07-06T06:14:44.982Z,100
2017-07-06T06:15:46.663Z,100
2017-07-06T06:16:48.061Z,100
2017-07-06T06:17:49.469Z,105
2017-07-06T06:18:50.987Z,105
2017-07-06T06:19:52.392Z,105
2017-07-06T06:20:53.794Z,105
2017-07-06T06:21:55.318Z,105
2017-07-06T06:22:56.722Z,110
2017-07-06T06:23:58.386Z,110
2017-07-06T06:24:59.794Z,110
2017-07-06T06:26:01.467Z,110
2017-07-06T06:27:02.873Z,115
2017-07-06T06:28:04.554Z,115
2017-07-06T06:29:06.074Z,115
2017-07-06T06:30:07.638Z,115
2017-07-06T06:31:09.046Z,120
2017-07-06T06:32:10.727Z,120
2017-07-06T06:33:12.133Z,120
2017-07-06T06:34:13.731Z,120
2017-07-06T06:35:15.137Z,125
2017-07-06T06:36:16.612Z,125
2017-07-06T06:37:18.017Z,125
2017-07-06T06:38:19.491Z,135
2017-07-06T06:39:20.892Z,130
2017-07-06T06:40:22.376Z,130
2017-07-06T06:41:23.783Z,130
2017-07-06T06:42:25.188Z,130
2017-07-06T06:43:26.696Z,130
2017-07-06T06:44:28.103Z,135
2017-07-06T06:45:29.510Z,135
2017-07-06T06:46:31.016Z,135
2017-07-06T06:47:32.420Z,145
2017-07-06T06:48:33.855Z,140
2017-07-06T06:49:35.391Z,145
2017-07-06T06:50:36.802Z,145
2017-07-06T06:51:38.223Z,145
2017-07-06T06:52:39.660Z,150
2017-07-06T06:53:41.065Z,150
2017-07-06T06:54:42.473Z,150
2017-07-06T06:55:43.983Z,155
2017-07-06T06:56:45.387Z,155
2017-07-06T06:57:46.794Z,150
2017-07-06T06:58:48.364Z,155
2017-07-06T06:59:49.771Z,155
2017-07-06T07:00:51.387Z,160
2017-07-06T07:01:52.795Z,160
2017-07-06T07:02:54.200Z,160
2017-07-06T07:03:55.710Z,165
2017-07-06T07:04:57.118Z,165
2017-07-06T07:05:58.524Z,165
2017-07-06T07:07:00.032Z,170
2017-07-06T07:08:01.438Z,170
2017-07-06T07:09:02.912Z,175
2017-07-06T07:10:04.319Z,175
2017-07-06T07:11:05.795Z,185
2017-07-06T07:12:07.200Z,180
2017-07-06T07:13:08.675Z,185
2017-07-06T07:14:10.085Z,180
2017-07-06T07:15:11.566Z,185
2017-07-06T07:16:13.012Z,185
2017-07-06T07:17:14.446Z,185
2017-07-06T07:18:15.855Z,190
2017-07-06T07:19:17.259Z,190
2017-07-06T07:20:18.766Z,190
2017-07-06T07:21:20.165Z,195
2017-07-06T07:22:21.571Z,195
2017-07-06T07:23:23.083Z,195
2017-07-06T07:24:24.485Z,200
2017-07-06T07:25:25.903Z,200
2017-07-06T07:26:27.402Z,200
2017-07-06T07:27:28.809Z,200
2017-07-06T07:28:30.218Z,205
2017-07-06T07:29:31.637Z,205
2017-07-06T07:30:33.051Z,210
2017-07-06T07:31:34.607Z,210
2017-07-06T07:32:36.057Z,215
2017-07-06T07:33:37.463Z,215
2017-07-06T07:34:38.932Z,220
2017-07-06T07:35:40.355Z,225
2017-07-06T07:36:41.759Z,225
2017-07-06T07:37:43.256Z,235
2017-07-06T07:38:44.664Z,235
2017-07-06T07:39:46.135Z,240
2017-07-06T07:40:47.552Z,245
2017-07-06T07:41:49.014Z,250
2017-07-06T07:42:50.422Z,250
2017-07-06T07:43:51.904Z,245
2017-07-06T07:44:53.327Z,245
2017-07-06T07:45:54.774Z,245
2017-07-06T07:46:56.185Z,245
2017-07-06T07:47:57.656Z,245
2017-07-06T07:48:59.066Z,250
2017-07-06T07:50:00.535Z,250
2017-07-06T07:51:01.960Z,260
2017-07-06T07:52:03.500Z,265
2017-07-06T07:53:04.914Z,265
2017-07-06T07:54:06.510Z,265
2017-07-06T07:55:07.923Z,265
2017-07-06T07:56:09.380Z,265
2017-07-06T07:57:10.804Z,265
2017-07-06T07:58:12.215Z,270
2017-07-06T07:59:13.703Z,270
2017-07-06T08:00:15.122Z,270
2017-07-06T08:01:16.513Z,280
2017-07-06T08:02:18.034Z,275
2017-07-06T08:03:19.435Z,280
2017-07-06T08:04:20.838Z,280
2017-07-06T08:05:22.351Z,260
2017-07-06T08:06:23.768Z,325
2017-07-06T08:07:25.230Z,315
2017-07-06T08:08:26.644Z,290
2017-07-06T08:09:28.111Z,290
2017-07-06T08:10:29.520Z,295
2017-07-06T08:11:30.983Z,295
2017-07-06T08:12:32.420Z,300
2017-07-06T08:13:33.875Z,300
2017-07-06T08:14:35.290Z,305
2017-07-06T08:15:36.760Z,315
2017-07-06T08:16:38.190Z,310
2017-07-06T08:17:39.634Z,310
2017-07-06T08:18:41.046Z,320
2017-07-06T08:19:42.456Z,320
2017-07-06T08:20:44.008Z,325
2017-07-06T08:21:45.418Z,325
2017-07-06T08:22:46.826Z,320
2017-07-06T08:23:48.243Z,320
2017-07-06T08:24:49.786Z,330
2017-07-06T08:25:51.196Z,325
2017-07-06T08:26:52.608Z,330
2017-07-06T08:27:54.092Z,335
2017-07-06T08:28:55.498Z,340
2017-07-06T08:29:56.988Z,340
2017-07-06T08:30:58.396Z,340
2017-07-06T08:32:00.055Z,350
2017-07-06T08:33:01.466Z,345
2017-07-06T08:34:03.142Z,355
2017-07-06T08:35:04.553Z,360
2017-07-06T08:36:06.027Z,375
2017-07-06T08:37:07.434Z,460
2017-07-06T08:38:09.107Z,475
2017-07-06T08:39:10.519Z,420
2017-07-06T08:40:11.934Z,390
2017-07-06T08:41:13.448Z,390
2017-07-06T08:42:14.841Z,400
2017-07-06T08:43:16.250Z,395
2017-07-06T08:44:17.752Z,400
2017-07-06T08:45:19.185Z,400
2017-07-06T08:46:20.598Z,400
2017-07-06T08:47:22.071Z,405
2017-07-06T08:48:23.479Z,410
2017-07-06T08:49:24.895Z,425
2017-07-06T08:50:26.401Z,440
2017-07-06T08:51:27.799Z,480
2017-07-06T08:52:29.226Z,1755
2017-07-06T08:53:30.714Z,2110
2017-07-06T08:54:32.152Z,2115
2017-07-06T08:55:33.561Z,2155
2017-07-06T08:56:35.065Z,2225
2017-07-06T08:57:36.480Z,2135
2017-07-06T08:58:37.890Z,1990
2017-07-06T08:59:39.557Z,1950
2017-07-06T09:00:40.969Z,2020
2017-07-06T09:01:42.644Z,2050
2017-07-06T09:02:44.054Z,2135
2017-07-06T09:03:45.523Z,2110
2017-07-06T09:04:46.934Z,2130
2017-07-06T09:05:48.351Z,2265
2017-07-06T09:06:49.848Z,2275
2017-07-06T09:07:51.258Z,2200
2017-07-06T09:08:52.673Z,2275
2017-07-06T09:09:54.167Z,2275
2017-07-06T09:10:55.577Z,2350
2017-07-06T09:11:57.048Z,2365
2017-07-06T09:12:58.456Z,2145
2017-07-06T09:14:00.015Z,1725
2017-07-06T09:15:01.439Z,2005
2017-07-06T09:16:03.020Z,1955
2017-07-06T09:17:04.455Z,790
2017-07-06T09:18:06.099Z,765
2017-07-06T09:19:07.514Z,800
2017-07-06T09:20:08.978Z,1550
2017-07-06T09:21:10.394Z,2195
2017-07-06T09:22:11.862Z,2255
2017-07-06T09:23:13.303Z,2305
2017-07-06T09:24:14.947Z,2470
2017-07-06T09:25:16.391Z,2505
2017-07-06T09:26:18.030Z,2465
2017-07-06T09:27:19.441Z,2495
2017-07-06T09:28:20.910Z,2445
2017-07-06T09:29:22.339Z,2550
2017-07-06T09:30:23.750Z,2550
2017-07-06T09:31:25.230Z,2620
2017-07-06T09:32:26.646Z,2600
2017-07-06T09:33:28.059Z,2555
2017-07-06T09:34:29.551Z,2600
2017-07-06T09:35:30.963Z,2605
2017-07-06T09:36:32.427Z,2615
2017-07-06T09:37:33.874Z,1760
2017-07-06T09:38:35.284Z,1895
2017-07-06T09:39:36.714Z,1560
2017-07-06T09:40:38.191Z,1535
2017-07-06T09:41:39.624Z,990
2017-07-06T09:42:41.031Z,855
2017-07-06T09:43:42.514Z,1000
2017-07-06T09:44:43.947Z,1015
2017-07-06T09:45:45.389Z,1800
2017-07-06T09:46:47.048Z,2485
2017-07-06T09:47:48.467Z,2095
2017-07-06T09:48:50.125Z,2500
2017-07-06T09:49:51.548Z,2135
2017-07-06T09:50:53.006Z,2125
2017-07-06T09:51:54.430Z,2750
2017-07-06T09:52:55.886Z,1870
2017-07-06T09:53:57.310Z,1110
2017-07-06T09:54:58.726Z,2010
2017-07-06T09:56:00.207Z,2025
2017-07-06T09:57:01.622Z,2150
2017-07-06T09:58:03.039Z,1120
2017-07-06T09:59:04.535Z,995
2017-07-06T10:00:05.952Z,3015
2017-07-06T10:01:07.357Z,640
2017-07-06T10:02:08.859Z,585
2017-07-06T10:03:10.273Z,2685
2017-07-06T10:04:11.683Z,1895
2017-07-06T10:05:13.201Z,2510
2017-07-06T10:06:14.618Z,2520
2017-07-06T10:07:16.256Z,2700
2017-07-06T10:08:17.667Z,2665
2017-07-06T10:09:19.108Z,1215
2017-07-06T10:10:20.529Z,1540
2017-07-06T10:11:21.944Z,2450
2017-07-06T10:12:23.358Z,1340
2017-07-06T10:13:24.773Z,885
2017-07-06T10:14:26.315Z,840
2017-07-06T10:15:27.735Z,1135
2017-07-06T10:16:29.197Z,930
2017-07-06T10:17:30.626Z,870
2017-07-06T10:18:32.108Z,880
2017-07-06T10:19:33.512Z,905
2017-07-06T10:20:34.924Z,1080
2017-07-06T10:21:36.398Z,1205
2017-07-06T10:22:37.809Z,1135
2017-07-06T10:23:39.223Z,1950
2017-07-06T10:24:40.718Z,3575
2017-07-06T10:25:42.135Z,3640
2017-07-06T10:26:43.662Z,1915
2017-07-06T10:27:45.076Z,1855
2017-07-06T10:28:46.684Z,1115
2017-07-06T10:29:48.095Z,2175
2017-07-06T10:30:49.566Z,1380
2017-07-06T10:31:50.979Z,1045
2017-07-06T10:32:52.447Z,655
2017-07-06T10:33:53.887Z,630
2017-07-06T10:34:55.326Z,950
2017-07-06T10:35:56.751Z,775
2017-07-06T10:36:58.233Z,705
2017-07-06T10:37:59.658Z,1265
2017-07-06T10:39:01.114Z,1460
2017-07-06T10:40:02.576Z,3465
2017-07-06T10:41:04.176Z,3520
2017-07-06T10:42:05.592Z,3445
2017-07-06T10:43:07.077Z,3435
2017-07-06T10:44:08.488Z,1760
2017-07-06T10:45:10.160Z,945
2017-07-06T10:46:11.570Z,1020
2017-07-06T10:47:13.042Z,2285
2017-07-06T10:48:14.460Z,3090
2017-07-06T10:49:15.924Z,3495
2017-07-06T10:50:17.341Z,1095
2017-07-06T10:51:18.805Z,1455
2017-07-06T10:52:20.212Z,195
2017-07-06T10:53:21.683Z,2675
2017-07-06T10:54:23.118Z,650
2017-07-06T10:55:24.568Z,3340
2017-07-06T10:56:25.980Z,1920
2017-07-06T10:57:27.458Z,2505
2017-07-06T10:58:28.867Z,1300
2017-07-06T10:59:30.340Z,1195
2017-07-06T11:00:31.756Z,2530
2017-07-06T11:01:33.173Z,1175
2017-07-06T11:02:34.654Z,2905
2017-07-06T11:03:36.067Z,3015
2017-07-06T11:04:37.476Z,1310
2017-07-06T11:05:38.964Z,2325
2017-07-06T11:06:40.384Z,1150
2017-07-06T11:07:41.849Z,2455
2017-07-06T11:08:43.270Z,4430
2017-07-06T11:09:44.739Z,1465
2017-07-06T11:10:46.159Z,3145
2017-07-06T11:11:47.608Z,3165
2017-07-06T11:12:49.034Z,3110
2017-07-06T11:13:50.484Z,3035
2017-07-06T11:14:52.928Z,3525
2017-07-06T11:15:54.343Z,4590
2017-07-06T11:16:55.834Z,3265
2017-07-06T11:17:57.256Z,2280
2017-07-06T11:18:58.668Z,2445
2017-07-06T11:20:00.153Z,3690
2017-07-06T11:21:01.567Z,3385
2017-07-06T11:22:02.978Z,3310
2017-07-06T11:23:04.494Z,4335
2017-07-06T11:24:05.908Z,2290
2017-07-06T11:25:07.337Z,2535
2017-07-06T11:26:08.894Z,3825
2017-07-06T11:27:10.306Z,3835
2017-07-06T11:28:11.986Z,4200
2017-07-06T11:29:13.392Z,4205
2017-07-06T11:30:15.063Z,4160
2017-07-06T11:31:16.477Z,4325
2017-07-06T11:32:18.149Z,4385
2017-07-06T11:33:19.568Z,2485
2017-07-06T11:34:21.244Z,1755
2017-07-06T11:35:22.684Z,1810
2017-07-06T11:36:24.321Z,2470
2017-07-06T11:37:25.745Z,1315
2017-07-06T11:38:27.411Z,4615
2017-07-06T11:39:28.826Z,4615
2017-07-06T11:40:30.496Z,4405
2017-07-06T11:41:31.911Z,3315
2017-07-06T11:42:33.324Z,3185
2017-07-06T11:43:35.019Z,2725
2017-07-06T11:44:36.436Z,1995
2017-07-06T11:45:37.845Z,1485
2017-07-06T11:46:39.543Z,1825
2017-07-06T11:47:40.961Z,1405
2017-07-06T11:48:42.377Z,2790
2017-07-06T11:49:44.070Z,2475
2017-07-06T11:50:45.483Z,2890
2017-07-06T11:51:46.898Z,4205
2017-07-06T11:52:48.597Z,2760
2017-07-06T11:53:50.013Z,4525
2017-07-06T11:54:51.430Z,2005
2017-07-06T11:55:53.123Z,1650
2017-07-06T11:56:54.537Z,3405
2017-07-06T11:57:55.953Z,4160
2017-07-06T11:58:57.708Z,3270
2017-07-06T11:59:59.140Z,3325
2017-07-06T12:01:00.556Z,1030
2017-07-06T12:02:02.178Z,1000
2017-07-06T12:03:03.587Z,1000
2017-07-06T12:04:05.001Z,1115
2017-07-06T12:05:06.600Z,965
2017-07-06T12:06:08.017Z,3130
2017-07-06T12:07:09.432Z,3435
2017-07-06T12:08:10.922Z,1215
2017-07-06T12:09:12.336Z,655
2017-07-06T12:10:13.803Z,820
2017-07-06T12:11:15.224Z,525
2017-07-06T12:12:16.686Z,495
2017-07-06T12:13:18.101Z,490
2017-07-06T12:14:19.568Z,520
2017-07-06T12:15:20.982Z,510
2017-07-06T12:16:22.450Z,750
2017-07-06T12:17:23.859Z,610
2017-07-06T12:18:25.332Z,1020
2017-07-06T12:19:26.742Z,735
2017-07-06T12:20:28.210Z,545
2017-07-06T12:21:29.621Z,730
2017-07-06T12:22:31.057Z,2330
2017-07-06T12:23:32.531Z,4530
2017-07-06T12:24:33.943Z,1355
2017-07-06T12:25:35.352Z,2070
2017-07-06T12:26:36.857Z,1065
2017-07-06T12:27:38.268Z,4085
2017-07-06T12:28:39.678Z,2300
2017-07-06T12:29:41.226Z,4435
2017-07-06T12:30:42.638Z,2885
2017-07-06T12:31:44.045Z,2770
2017-07-06T12:32:45.498Z,2745
2017-07-06T12:33:46.914Z,2880
2017-07-06T12:34:48.793Z,3480
2017-07-06T12:35:50.230Z,1810
2017-07-06T12:36:51.647Z,1255
2017-07-06T12:37:53.061Z,1565
2017-07-06T12:38:54.555Z,1155
2017-07-06T12:39:55.969Z,1010
2017-07-06T12:40:57.382Z,770
2017-07-06T12:41:58.875Z,1005
2017-07-06T12:43:00.290Z,525
2017-07-06T12:44:01.700Z,415
2017-07-06T12:45:03.416Z,350
2017-07-06T12:46:04.833Z,320
2017-07-06T12:47:06.238Z,320
2017-07-06T12:48:07.718Z,375
2017-07-06T12:49:09.135Z,460
2017-07-06T12:50:10.599Z,460
2017-07-06T12:51:12.014Z,2555
2017-07-06T12:52:13.489Z,1450
2017-07-06T12:53:14.896Z,1940
2017-07-06T12:54:16.366Z,1495
2017-07-06T12:55:17.778Z,1360
2017-07-06T12:56:19.247Z,955
2017-07-06T12:57:20.666Z,890
2017-07-06T12:58:22.126Z,755
2017-07-06T12:59:23.539Z,1020
2017-07-06T13:00:25.028Z,1035
2017-07-06T13:01:26.437Z,1210
2017-07-06T13:02:27.854Z,1335
2017-07-06T13:03:29.329Z,1030
2017-07-06T13:04:30.741Z,1140
2017-07-06T13:05:32.154Z,1925
2017-07-06T13:06:33.649Z,2310
2017-07-06T13:07:35.060Z,2310
2017-07-06T13:08:36.473Z,2535
2017-07-06T13:09:37.972Z,2555
2017-07-06T13:10:39.384Z,2480
2017-07-06T13:11:40.797Z,2185
2017-07-06T13:12:42.291Z,1715
2017-07-06T13:13:43.703Z,970
2017-07-06T13:14:45.173Z,520
2017-07-06T13:15:46.584Z,435
2017-07-06T13:16:47.995Z,390
2017-07-06T13:17:49.496Z,355
2017-07-06T13:18:50.905Z,325
2017-07-06T13:19:52.315Z,305
2017-07-06T13:20:53.816Z,295
2017-07-06T13:21:55.225Z,280
2017-07-06T13:22:56.635Z,270
2017-07-06T13:23:58.047Z,260
2017-07-06T13:24:59.593Z,265
2017-07-06T13:26:01.005Z,265
2017-07-06T13:27:02.414Z,250
2017-07-06T13:28:03.909Z,240
2017-07-06T13:29:05.344Z,235
2017-07-06T13:30:06.751Z,235
2017-07-06T13:31:08.230Z,235
2017-07-06T13:32:09.634Z,230
2017-07-06T13:33:11.042Z,225
2017-07-06T13:34:12.539Z,225
2017-07-06T13:35:13.951Z,225
2017-07-06T13:36:15.421Z,230
2017-07-06T13:37:16.837Z,260
2017-07-06T13:38:18.251Z,265
2017-07-06T13:39:19.743Z,250
2017-07-06T13:40:21.155Z,245
2017-07-06T13:41:22.569Z,255
2017-07-06T13:42:24.272Z,250
2017-07-06T13:43:25.682Z,260
2017-07-06T13:44:27.151Z,260
2017-07-06T13:45:28.560Z,260
2017-07-06T13:46:30.031Z,260
2017-07-06T13:47:31.438Z,265
2017-07-06T13:48:32.853Z,285
2017-07-06T13:49:34.356Z,285
2017-07-06T13:50:35.757Z,300
2017-07-06T13:51:37.168Z,310
2017-07-06T13:52:38.673Z,315
2017-07-06T13:53:40.079Z,310
2017-07-06T13:54:41.556Z,305
2017-07-06T13:55:42.972Z,300
2017-07-06T13:56:44.438Z,295
2017-07-06T13:57:45.845Z,295
2017-07-06T13:58:47.251Z,305
2017-07-06T13:59:48.759Z,310
2017-07-06T14:00:50.188Z,305
2017-07-06T14:01:51.600Z,305
2017-07-06T14:02:53.079Z,305
2017-07-06T14:03:54.521Z,300
2017-07-06T14:04:55.963Z,295
2017-07-06T14:05:57.393Z,295
2017-07-06T14:06:58.843Z,290
2017-07-06T14:08:00.249Z,285
2017-07-06T14:09:01.658Z,285
2017-07-06T14:10:03.370Z,280
2017-07-06T14:11:04.777Z,270
2017-07-06T14:12:06.187Z,260
2017-07-06T14:13:07.695Z,245
2017-07-06T14:14:09.098Z,230
2017-07-06T14:15:10.576Z,220
2017-07-06T14:16:11.986Z,215
2017-07-06T14:17:13.456Z,220
2017-07-06T14:18:14.870Z,220
2017-07-06T14:19:16.276Z,225